sensor_id;sensor_type;location;lat;lon;timestamp;P1;durP1;ratioP1;P2;durP2;ratioP2
47749;SDS011;49810;48.160;10.812;2023-06-14T00:02:24;8.73;;;4.38;;
47749;SDS011;49810;48.160;10.812;2023-06-14T00:04:52;6.80;;;3.90;;
47749;SDS011;49810;48.160;10.812;2023-06-14T00:07:21;6.00;;;3.65;;
47749;SDS011;49810;48.160;10.812;2023-06-14T00:10:01;7.25;;;3.97;;
47749;SDS011;49810;48.160;10.812;2023-06-14T00:12:29;7.93;;;3.60;;
47749;SDS011;49810;48.160;10.812;2023-06-14T00:14:57;5.95;;;4.25;;
47749;SDS011;49810;48.160;10.812;2023-06-14T00:17:26;7.93;;;4.03;;
47749;SDS011;49810;48.160;10.812;2023-06-14T00:19:56;6.60;;;3.75;;
47749;SDS011;49810;48.160;10.812;2023-06-14T00:22:25;8.85;;;3.80;;
47749;SDS011;49810;48.160;10.812;2023-06-14T00:24:55;13.20;;;4.05;;
47749;SDS011;49810;48.160;10.812;2023-06-14T00:27:23;10.05;;;4.22;;
47749;SDS011;49810;48.160;10.812;2023-06-14T00:29:51;8.80;;;3.70;;
47749;SDS011;49810;48.160;10.812;2023-06-14T00:32:19;6.10;;;3.40;;
47749;SDS011;49810;48.160;10.812;2023-06-14T00:34:52;9.05;;;3.88;;
47749;SDS011;49810;48.160;10.812;2023-06-14T00:37:20;8.25;;;4.40;;
47749;SDS011;49810;48.160;10.812;2023-06-14T00:39:48;9.25;;;4.20;;
47749;SDS011;49810;48.160;10.812;2023-06-14T00:42:25;7.78;;;4.28;;
47749;SDS011;49810;48.160;10.812;2023-06-14T00:44:53;8.68;;;5.20;;
47749;SDS011;49810;48.160;10.812;2023-06-14T00:47:22;9.90;;;4.90;;
47749;SDS011;49810;48.160;10.812;2023-06-14T00:49:50;9.20;;;4.88;;
47749;SDS011;49810;48.160;10.812;2023-06-14T00:52:20;8.88;;;5.07;;
47749;SDS011;49810;48.160;10.812;2023-06-14T00:54:48;8.93;;;4.70;;
47749;SDS011;49810;48.160;10.812;2023-06-14T00:57:16;15.05;;;9.00;;
47749;SDS011;49810;48.160;10.812;2023-06-14T00:59:46;16.83;;;9.55;;
47749;SDS011;49810;48.160;10.812;2023-06-14T01:02:15;13.35;;;7.82;;
47749;SDS011;49810;48.160;10.812;2023-06-14T01:05:02;10.95;;;6.05;;
47749;SDS011;49810;48.160;10.812;2023-06-14T01:07:33;13.30;;;6.43;;
47749;SDS011;49810;48.160;10.812;2023-06-14T01:10:07;9.70;;;5.15;;
47749;SDS011;49810;48.160;10.812;2023-06-14T01:12:39;8.60;;;5.45;;
47749;SDS011;49810;48.160;10.812;2023-06-14T01:15:07;11.00;;;5.68;;
47749;SDS011;49810;48.160;10.812;2023-06-14T01:17:36;8.43;;;5.40;;
47749;SDS011;49810;48.160;10.812;2023-06-14T01:20:10;11.60;;;5.13;;
47749;SDS011;49810;48.160;10.812;2023-06-14T01:25:31;10.60;;;5.38;;
47749;SDS011;49810;48.160;10.812;2023-06-14T01:28:01;10.95;;;5.25;;
47749;SDS011;49810;48.160;10.812;2023-06-14T01:30:30;8.43;;;5.00;;
47749;SDS011;49810;48.160;10.812;2023-06-14T01:33:00;11.13;;;5.20;;
47749;SDS011;49810;48.160;10.812;2023-06-14T01:35:30;9.18;;;4.75;;
47749;SDS011;49810;48.160;10.812;2023-06-14T01:38:01;8.40;;;4.55;;
47749;SDS011;49810;48.160;10.812;2023-06-14T01:40:31;8.23;;;5.10;;
47749;SDS011;49810;48.160;10.812;2023-06-14T01:43:00;9.52;;;5.15;;
47749;SDS011;49810;48.160;10.812;2023-06-14T01:45:29;9.00;;;4.97;;
47749;SDS011;49810;48.160;10.812;2023-06-14T01:47:58;8.30;;;5.10;;
47749;SDS011;49810;48.160;10.812;2023-06-14T01:50:28;12.27;;;5.53;;
47749;SDS011;49810;48.160;10.812;2023-06-14T01:52:57;9.13;;;4.82;;
47749;SDS011;49810;48.160;10.812;2023-06-14T01:55:25;8.20;;;5.15;;
47749;SDS011;49810;48.160;10.812;2023-06-14T01:57:54;7.63;;;4.88;;
47749;SDS011;49810;48.160;10.812;2023-06-14T02:00:22;8.55;;;4.88;;
47749;SDS011;49810;48.160;10.812;2023-06-14T02:02:51;7.55;;;5.10;;
47749;SDS011;49810;48.160;10.812;2023-06-14T02:05:19;8.30;;;5.25;;
47749;SDS011;49810;48.160;10.812;2023-06-14T02:07:47;9.20;;;5.30;;
47749;SDS011;49810;48.160;10.812;2023-06-14T02:10:17;7.70;;;5.20;;
47749;SDS011;49810;48.160;10.812;2023-06-14T02:12:46;12.10;;;5.55;;
47749;SDS011;49810;48.160;10.812;2023-06-14T02:15:15;9.32;;;5.10;;
47749;SDS011;49810;48.160;10.812;2023-06-14T02:17:46;7.97;;;5.00;;
47749;SDS011;49810;48.160;10.812;2023-06-14T02:20:16;8.38;;;4.60;;
47749;SDS011;49810;48.160;10.812;2023-06-14T02:22:45;9.60;;;5.53;;
47749;SDS011;49810;48.160;10.812;2023-06-14T02:25:13;9.52;;;4.70;;
47749;SDS011;49810;48.160;10.812;2023-06-14T02:27:42;8.32;;;5.35;;
47749;SDS011;49810;48.160;10.812;2023-06-14T02:30:10;9.25;;;5.10;;
47749;SDS011;49810;48.160;10.812;2023-06-14T02:32:40;11.02;;;5.40;;
47749;SDS011;49810;48.160;10.812;2023-06-14T02:35:12;9.30;;;5.32;;
47749;SDS011;49810;48.160;10.812;2023-06-14T02:37:40;11.18;;;5.18;;
47749;SDS011;49810;48.160;10.812;2023-06-14T02:40:09;7.28;;;5.10;;
47749;SDS011;49810;48.160;10.812;2023-06-14T02:42:38;8.82;;;5.07;;
47749;SDS011;49810;48.160;10.812;2023-06-14T02:45:07;9.75;;;5.22;;
47749;SDS011;49810;48.160;10.812;2023-06-14T02:47:35;9.27;;;5.10;;
47749;SDS011;49810;48.160;10.812;2023-06-14T02:50:07;8.32;;;4.93;;
47749;SDS011;49810;48.160;10.812;2023-06-14T02:52:36;8.82;;;5.25;;
47749;SDS011;49810;48.160;10.812;2023-06-14T02:55:04;12.80;;;5.32;;
47749;SDS011;49810;48.160;10.812;2023-06-14T02:57:33;9.88;;;5.20;;
47749;SDS011;49810;48.160;10.812;2023-06-14T03:00:02;13.05;;;5.07;;
47749;SDS011;49810;48.160;10.812;2023-06-14T03:02:32;9.70;;;5.75;;
47749;SDS011;49810;48.160;10.812;2023-06-14T03:05:00;10.05;;;5.97;;
47749;SDS011;49810;48.160;10.812;2023-06-14T03:07:31;8.98;;;5.22;;
47749;SDS011;49810;48.160;10.812;2023-06-14T03:10:03;10.65;;;5.50;;
47749;SDS011;49810;48.160;10.812;2023-06-14T03:12:32;8.05;;;5.25;;
47749;SDS011;49810;48.160;10.812;2023-06-14T03:14:59;8.35;;;5.50;;
47749;SDS011;49810;48.160;10.812;2023-06-14T03:17:36;12.73;;;6.10;;
47749;SDS011;49810;48.160;10.812;2023-06-14T03:20:07;11.43;;;6.18;;
47749;SDS011;49810;48.160;10.812;2023-06-14T03:22:37;13.30;;;5.90;;
47749;SDS011;49810;48.160;10.812;2023-06-14T03:25:06;11.52;;;5.90;;
47749;SDS011;49810;48.160;10.812;2023-06-14T03:27:38;13.25;;;5.88;;
47749;SDS011;49810;48.160;10.812;2023-06-14T03:30:07;8.80;;;6.22;;
47749;SDS011;49810;48.160;10.812;2023-06-14T03:32:36;14.15;;;6.32;;
47749;SDS011;49810;48.160;10.812;2023-06-14T03:35:05;14.10;;;7.20;;
47749;SDS011;49810;48.160;10.812;2023-06-14T03:37:33;12.93;;;6.82;;
47749;SDS011;49810;48.160;10.812;2023-06-14T03:40:03;11.88;;;7.38;;
47749;SDS011;49810;48.160;10.812;2023-06-14T03:42:38;13.82;;;6.45;;
47749;SDS011;49810;48.160;10.812;2023-06-14T03:45:07;10.68;;;6.22;;
47749;SDS011;49810;48.160;10.812;2023-06-14T03:47:36;12.52;;;6.10;;
47749;SDS011;49810;48.160;10.812;2023-06-14T03:50:04;16.55;;;7.03;;
47749;SDS011;49810;48.160;10.812;2023-06-14T03:52:33;18.90;;;7.10;;
47749;SDS011;49810;48.160;10.812;2023-06-14T03:55:03;14.75;;;6.47;;
47749;SDS011;49810;48.160;10.812;2023-06-14T03:57:34;12.82;;;6.57;;
47749;SDS011;49810;48.160;10.812;2023-06-14T04:00:07;16.27;;;7.20;;
47749;SDS011;49810;48.160;10.812;2023-06-14T04:02:39;11.52;;;7.25;;
47749;SDS011;49810;48.160;10.812;2023-06-14T04:05:09;11.65;;;7.38;;
47749;SDS011;49810;48.160;10.812;2023-06-14T04:07:43;12.80;;;7.50;;
47749;SDS011;49810;48.160;10.812;2023-06-14T04:10:14;14.35;;;7.75;;
47749;SDS011;49810;48.160;10.812;2023-06-14T04:12:44;18.10;;;10.70;;
47749;SDS011;49810;48.160;10.812;2023-06-14T04:15:13;22.33;;;9.30;;
47749;SDS011;49810;48.160;10.812;2023-06-14T04:17:49;13.18;;;7.10;;
47749;SDS011;49810;48.160;10.812;2023-06-14T04:20:19;13.57;;;7.75;;
47749;SDS011;49810;48.160;10.812;2023-06-14T04:22:46;14.43;;;7.38;;
47749;SDS011;49810;48.160;10.812;2023-06-14T04:25:17;13.80;;;7.57;;
47749;SDS011;49810;48.160;10.812;2023-06-14T04:27:50;15.27;;;7.95;;
47749;SDS011;49810;48.160;10.812;2023-06-14T04:30:21;12.82;;;8.10;;
47749;SDS011;49810;48.160;10.812;2023-06-14T04:32:54;15.02;;;8.30;;
47749;SDS011;49810;48.160;10.812;2023-06-14T04:35:23;18.85;;;9.07;;
47749;SDS011;49810;48.160;10.812;2023-06-14T04:37:52;18.05;;;8.30;;
47749;SDS011;49810;48.160;10.812;2023-06-14T04:40:23;16.10;;;8.77;;
47749;SDS011;49810;48.160;10.812;2023-06-14T04:42:51;12.35;;;8.10;;
47749;SDS011;49810;48.160;10.812;2023-06-14T04:45:21;16.45;;;8.88;;
47749;SDS011;49810;48.160;10.812;2023-06-14T04:47:50;16.30;;;8.30;;
47749;SDS011;49810;48.160;10.812;2023-06-14T04:50:26;18.13;;;8.02;;
47749;SDS011;49810;48.160;10.812;2023-06-14T04:52:54;16.88;;;9.50;;
47749;SDS011;49810;48.160;10.812;2023-06-14T04:55:25;15.02;;;9.20;;
47749;SDS011;49810;48.160;10.812;2023-06-14T04:57:53;15.18;;;8.63;;
47749;SDS011;49810;48.160;10.812;2023-06-14T05:00:21;15.65;;;8.18;;
47749;SDS011;49810;48.160;10.812;2023-06-14T05:02:50;16.55;;;9.80;;
47749;SDS011;49810;48.160;10.812;2023-06-14T05:05:20;17.27;;;9.55;;
47749;SDS011;49810;48.160;10.812;2023-06-14T05:07:48;17.25;;;9.63;;
47749;SDS011;49810;48.160;10.812;2023-06-14T05:10:16;17.00;;;9.50;;
47749;SDS011;49810;48.160;10.812;2023-06-14T05:12:48;14.32;;;9.18;;
47749;SDS011;49810;48.160;10.812;2023-06-14T05:15:18;15.38;;;8.63;;
47749;SDS011;49810;48.160;10.812;2023-06-14T05:17:45;15.80;;;8.50;;
47749;SDS011;49810;48.160;10.812;2023-06-14T05:20:14;15.20;;;8.23;;
47749;SDS011;49810;48.160;10.812;2023-06-14T05:22:42;12.93;;;8.93;;
47749;SDS011;49810;48.160;10.812;2023-06-14T05:25:10;13.88;;;8.73;;
47749;SDS011;49810;48.160;10.812;2023-06-14T05:27:39;12.30;;;7.95;;
47749;SDS011;49810;48.160;10.812;2023-06-14T05:30:10;12.40;;;7.00;;
47749;SDS011;49810;48.160;10.812;2023-06-14T05:32:38;14.18;;;6.53;;
47749;SDS011;49810;48.160;10.812;2023-06-14T05:35:06;11.48;;;7.32;;
47749;SDS011;49810;48.160;10.812;2023-06-14T05:37:34;12.98;;;6.95;;
47749;SDS011;49810;48.160;10.812;2023-06-14T05:40:02;10.80;;;7.18;;
47749;SDS011;49810;48.160;10.812;2023-06-14T05:42:32;12.30;;;6.90;;
47749;SDS011;49810;48.160;10.812;2023-06-14T05:45:00;13.80;;;7.47;;
47749;SDS011;49810;48.160;10.812;2023-06-14T05:47:30;12.10;;;7.05;;
47749;SDS011;49810;48.160;10.812;2023-06-14T05:49:58;9.75;;;6.85;;
47749;SDS011;49810;48.160;10.812;2023-06-14T05:52:26;15.32;;;7.10;;
47749;SDS011;49810;48.160;10.812;2023-06-14T05:54:55;10.77;;;6.45;;
47749;SDS011;49810;48.160;10.812;2023-06-14T05:57:23;9.85;;;6.80;;
47749;SDS011;49810;48.160;10.812;2023-06-14T05:59:50;11.23;;;6.43;;
47749;SDS011;49810;48.160;10.812;2023-06-14T06:02:18;13.73;;;7.13;;
47749;SDS011;49810;48.160;10.812;2023-06-14T06:04:48;14.88;;;6.28;;
47749;SDS011;49810;48.160;10.812;2023-06-14T06:07:16;9.77;;;6.25;;
47749;SDS011;49810;48.160;10.812;2023-06-14T06:09:44;10.43;;;5.82;;
47749;SDS011;49810;48.160;10.812;2023-06-14T06:12:12;11.80;;;5.95;;
47749;SDS011;49810;48.160;10.812;2023-06-14T06:14:40;11.77;;;6.40;;
47749;SDS011;49810;48.160;10.812;2023-06-14T06:17:08;10.63;;;5.50;;
47749;SDS011;49810;48.160;10.812;2023-06-14T06:19:36;9.57;;;5.80;;
47749;SDS011;49810;48.160;10.812;2023-06-14T06:22:05;9.57;;;6.40;;
47749;SDS011;49810;48.160;10.812;2023-06-14T06:24:34;10.52;;;5.90;;
47749;SDS011;49810;48.160;10.812;2023-06-14T06:27:03;10.48;;;5.70;;
47749;SDS011;49810;48.160;10.812;2023-06-14T06:29:31;10.75;;;5.80;;
47749;SDS011;49810;48.160;10.812;2023-06-14T06:31:59;12.57;;;6.57;;
47749;SDS011;49810;48.160;10.812;2023-06-14T06:34:27;13.13;;;6.20;;
47749;SDS011;49810;48.160;10.812;2023-06-14T06:36:55;8.73;;;5.57;;
47749;SDS011;49810;48.160;10.812;2023-06-14T06:39:24;11.50;;;5.43;;
47749;SDS011;49810;48.160;10.812;2023-06-14T06:41:56;10.35;;;5.88;;
47749;SDS011;49810;48.160;10.812;2023-06-14T06:44:32;10.05;;;5.65;;
47749;SDS011;49810;48.160;10.812;2023-06-14T06:47:00;13.43;;;6.40;;
47749;SDS011;49810;48.160;10.812;2023-06-14T06:49:29;11.10;;;6.40;;
47749;SDS011;49810;48.160;10.812;2023-06-14T06:52:00;10.63;;;5.30;;
47749;SDS011;49810;48.160;10.812;2023-06-14T06:54:30;10.63;;;5.88;;
47749;SDS011;49810;48.160;10.812;2023-06-14T06:56:58;9.02;;;5.70;;
47749;SDS011;49810;48.160;10.812;2023-06-14T06:59:26;9.48;;;5.55;;
47749;SDS011;49810;48.160;10.812;2023-06-14T07:01:54;11.38;;;5.70;;
47749;SDS011;49810;48.160;10.812;2023-06-14T07:04:22;12.48;;;5.82;;
47749;SDS011;49810;48.160;10.812;2023-06-14T07:06:50;10.10;;;5.90;;
47749;SDS011;49810;48.160;10.812;2023-06-14T07:09:18;8.90;;;4.70;;
47749;SDS011;49810;48.160;10.812;2023-06-14T07:11:47;10.43;;;5.05;;
47749;SDS011;49810;48.160;10.812;2023-06-14T07:14:16;9.93;;;4.78;;
47749;SDS011;49810;48.160;10.812;2023-06-14T07:16:44;10.75;;;5.15;;
47749;SDS011;49810;48.160;10.812;2023-06-14T07:19:12;8.43;;;5.50;;
47749;SDS011;49810;48.160;10.812;2023-06-14T07:21:40;10.18;;;4.97;;
47749;SDS011;49810;48.160;10.812;2023-06-14T07:24:08;10.55;;;5.03;;
47749;SDS011;49810;48.160;10.812;2023-06-14T07:26:37;9.68;;;4.68;;
47749;SDS011;49810;48.160;10.812;2023-06-14T07:29:06;13.25;;;4.90;;
47749;SDS011;49810;48.160;10.812;2023-06-14T07:31:34;7.13;;;4.00;;
47749;SDS011;49810;48.160;10.812;2023-06-14T07:34:02;9.38;;;4.03;;
47749;SDS011;49810;48.160;10.812;2023-06-14T07:36:31;8.80;;;4.25;;
47749;SDS011;49810;48.160;10.812;2023-06-14T07:38:58;7.60;;;4.00;;
47749;SDS011;49810;48.160;10.812;2023-06-14T07:41:27;8.10;;;4.13;;
47749;SDS011;49810;48.160;10.812;2023-06-14T07:43:55;8.45;;;4.15;;
47749;SDS011;49810;48.160;10.812;2023-06-14T07:46:24;9.30;;;4.30;;
47749;SDS011;49810;48.160;10.812;2023-06-14T07:48:52;7.40;;;4.10;;
47749;SDS011;49810;48.160;10.812;2023-06-14T07:51:20;8.93;;;4.55;;
47749;SDS011;49810;48.160;10.812;2023-06-14T07:53:49;7.78;;;3.85;;
47749;SDS011;49810;48.160;10.812;2023-06-14T07:56:18;8.00;;;4.20;;
47749;SDS011;49810;48.160;10.812;2023-06-14T07:58:46;9.07;;;4.05;;
47749;SDS011;49810;48.160;10.812;2023-06-14T08:01:14;10.75;;;4.30;;
47749;SDS011;49810;48.160;10.812;2023-06-14T08:03:44;6.00;;;3.88;;
47749;SDS011;49810;48.160;10.812;2023-06-14T08:06:13;10.00;;;4.15;;
47749;SDS011;49810;48.160;10.812;2023-06-14T08:08:41;6.43;;;3.88;;
47749;SDS011;49810;48.160;10.812;2023-06-14T08:11:09;6.45;;;3.70;;
47749;SDS011;49810;48.160;10.812;2023-06-14T08:13:37;7.75;;;3.72;;
47749;SDS011;49810;48.160;10.812;2023-06-14T08:16:05;6.68;;;3.95;;
47749;SDS011;49810;48.160;10.812;2023-06-14T08:18:33;7.00;;;3.83;;
47749;SDS011;49810;48.160;10.812;2023-06-14T08:21:02;6.20;;;3.85;;
47749;SDS011;49810;48.160;10.812;2023-06-14T08:23:30;5.65;;;3.90;;
47749;SDS011;49810;48.160;10.812;2023-06-14T08:25:58;10.48;;;3.60;;
47749;SDS011;49810;48.160;10.812;2023-06-14T08:28:28;8.07;;;3.90;;
47749;SDS011;49810;48.160;10.812;2023-06-14T08:30:56;6.55;;;4.03;;
47749;SDS011;49810;48.160;10.812;2023-06-14T08:33:24;7.18;;;3.72;;
47749;SDS011;49810;48.160;10.812;2023-06-14T08:35:52;7.38;;;3.50;;
47749;SDS011;49810;48.160;10.812;2023-06-14T08:38:21;5.75;;;2.97;;
47749;SDS011;49810;48.160;10.812;2023-06-14T08:40:50;7.75;;;3.80;;
47749;SDS011;49810;48.160;10.812;2023-06-14T08:43:18;8.02;;;3.65;;
47749;SDS011;49810;48.160;10.812;2023-06-14T08:45:46;5.35;;;3.15;;
47749;SDS011;49810;48.160;10.812;2023-06-14T08:48:17;4.45;;;3.33;;
47749;SDS011;49810;48.160;10.812;2023-06-14T08:50:48;6.78;;;3.58;;
47749;SDS011;49810;48.160;10.812;2023-06-14T08:53:21;7.75;;;3.40;;
47749;SDS011;49810;48.160;10.812;2023-06-14T08:55:49;9.30;;;3.38;;
47749;SDS011;49810;48.160;10.812;2023-06-14T08:58:19;7.13;;;3.70;;
47749;SDS011;49810;48.160;10.812;2023-06-14T09:00:51;8.98;;;4.00;;
47749;SDS011;49810;48.160;10.812;2023-06-14T09:03:19;9.40;;;3.92;;
47749;SDS011;49810;48.160;10.812;2023-06-14T09:05:47;7.22;;;3.80;;
47749;SDS011;49810;48.160;10.812;2023-06-14T09:08:16;6.85;;;3.80;;
47749;SDS011;49810;48.160;10.812;2023-06-14T09:10:47;7.55;;;3.25;;
47749;SDS011;49810;48.160;10.812;2023-06-14T09:13:16;10.07;;;3.95;;
47749;SDS011;49810;48.160;10.812;2023-06-14T09:15:44;11.38;;;3.72;;
47749;SDS011;49810;48.160;10.812;2023-06-14T09:18:12;8.32;;;3.50;;
47749;SDS011;49810;48.160;10.812;2023-06-14T09:20:40;9.82;;;4.00;;
47749;SDS011;49810;48.160;10.812;2023-06-14T09:23:08;8.82;;;3.22;;
47749;SDS011;49810;48.160;10.812;2023-06-14T09:25:43;9.45;;;3.90;;
47749;SDS011;49810;48.160;10.812;2023-06-14T09:28:13;8.52;;;3.90;;
47749;SDS011;49810;48.160;10.812;2023-06-14T09:30:42;7.03;;;3.38;;
47749;SDS011;49810;48.160;10.812;2023-06-14T09:33:10;8.35;;;3.53;;
47749;SDS011;49810;48.160;10.812;2023-06-14T09:35:38;13.90;;;3.67;;
47749;SDS011;49810;48.160;10.812;2023-06-14T09:38:06;8.65;;;3.60;;
47749;SDS011;49810;48.160;10.812;2023-06-14T09:40:35;8.50;;;3.47;;
47749;SDS011;49810;48.160;10.812;2023-06-14T09:43:06;7.32;;;3.53;;
47749;SDS011;49810;48.160;10.812;2023-06-14T09:45:36;6.68;;;3.30;;
47749;SDS011;49810;48.160;10.812;2023-06-14T09:48:06;9.75;;;3.30;;
47749;SDS011;49810;48.160;10.812;2023-06-14T09:50:34;5.97;;;3.75;;
47749;SDS011;49810;48.160;10.812;2023-06-14T09:53:03;8.35;;;3.67;;
47749;SDS011;49810;48.160;10.812;2023-06-14T09:55:34;6.82;;;3.67;;
47749;SDS011;49810;48.160;10.812;2023-06-14T09:58:04;7.63;;;3.28;;
47749;SDS011;49810;48.160;10.812;2023-06-14T10:00:33;8.63;;;3.30;;
47749;SDS011;49810;48.160;10.812;2023-06-14T10:03:05;7.45;;;3.42;;
47749;SDS011;49810;48.160;10.812;2023-06-14T10:05:34;8.25;;;3.65;;
47749;SDS011;49810;48.160;10.812;2023-06-14T10:08:04;6.65;;;3.13;;
47749;SDS011;49810;48.160;10.812;2023-06-14T10:10:32;6.90;;;3.75;;
47749;SDS011;49810;48.160;10.812;2023-06-14T10:13:00;6.03;;;3.10;;
47749;SDS011;49810;48.160;10.812;2023-06-14T10:15:30;9.25;;;3.83;;
47749;SDS011;49810;48.160;10.812;2023-06-14T10:18:01;10.20;;;3.33;;
47749;SDS011;49810;48.160;10.812;2023-06-14T10:20:35;6.22;;;3.08;;
47749;SDS011;49810;48.160;10.812;2023-06-14T10:23:06;10.88;;;3.55;;
47749;SDS011;49810;48.160;10.812;2023-06-14T10:25:36;7.00;;;3.58;;
47749;SDS011;49810;48.160;10.812;2023-06-14T10:28:16;6.22;;;3.50;;
47749;SDS011;49810;48.160;10.812;2023-06-14T10:31:06;7.82;;;3.45;;
47749;SDS011;49810;48.160;10.812;2023-06-14T10:33:34;4.72;;;3.10;;
47749;SDS011;49810;48.160;10.812;2023-06-14T10:38:57;6.50;;;3.45;;
47749;SDS011;49810;48.160;10.812;2023-06-14T10:41:26;5.85;;;3.13;;
47749;SDS011;49810;48.160;10.812;2023-06-14T10:46:45;6.07;;;3.47;;
47749;SDS011;49810;48.160;10.812;2023-06-14T10:49:15;6.28;;;3.50;;
47749;SDS011;49810;48.160;10.812;2023-06-14T10:51:44;7.60;;;3.60;;
47749;SDS011;49810;48.160;10.812;2023-06-14T10:54:14;6.47;;;3.97;;
47749;SDS011;49810;48.160;10.812;2023-06-14T10:56:45;5.53;;;3.42;;
47749;SDS011;49810;48.160;10.812;2023-06-14T10:59:15;8.40;;;3.72;;
47749;SDS011;49810;48.160;10.812;2023-06-14T11:01:47;9.70;;;4.22;;
47749;SDS011;49810;48.160;10.812;2023-06-14T11:04:21;6.13;;;3.70;;
47749;SDS011;49810;48.160;10.812;2023-06-14T11:06:51;9.30;;;3.47;;
47749;SDS011;49810;48.160;10.812;2023-06-14T11:09:33;9.10;;;3.63;;
47749;SDS011;49810;48.160;10.812;2023-06-14T11:12:08;5.18;;;3.30;;
47749;SDS011;49810;48.160;10.812;2023-06-14T11:14:38;9.98;;;3.58;;
47749;SDS011;49810;48.160;10.812;2023-06-14T11:17:06;11.98;;;3.75;;
47749;SDS011;49810;48.160;10.812;2023-06-14T11:19:34;5.35;;;3.30;;
47749;SDS011;49810;48.160;10.812;2023-06-14T11:22:02;5.57;;;3.40;;
47749;SDS011;49810;48.160;10.812;2023-06-14T11:24:33;15.57;;;3.92;;
47749;SDS011;49810;48.160;10.812;2023-06-14T11:27:01;6.43;;;3.30;;
47749;SDS011;49810;48.160;10.812;2023-06-14T11:29:29;7.65;;;3.28;;
47749;SDS011;49810;48.160;10.812;2023-06-14T11:31:58;9.13;;;3.75;;
47749;SDS011;49810;48.160;10.812;2023-06-14T11:34:26;8.85;;;3.50;;
47749;SDS011;49810;48.160;10.812;2023-06-14T11:36:54;8.32;;;3.67;;
47749;SDS011;49810;48.160;10.812;2023-06-14T11:39:24;6.30;;;3.72;;
47749;SDS011;49810;48.160;10.812;2023-06-14T11:41:54;6.28;;;3.60;;
47749;SDS011;49810;48.160;10.812;2023-06-14T11:44:22;12.20;;;3.63;;
47749;SDS011;49810;48.160;10.812;2023-06-14T11:46:50;7.20;;;3.60;;
47749;SDS011;49810;48.160;10.812;2023-06-14T11:49:18;8.95;;;4.18;;
47749;SDS011;49810;48.160;10.812;2023-06-14T11:51:46;6.18;;;3.63;;
47749;SDS011;49810;48.160;10.812;2023-06-14T11:54:14;8.05;;;3.65;;
47749;SDS011;49810;48.160;10.812;2023-06-14T11:56:42;9.80;;;3.20;;
47749;SDS011;49810;48.160;10.812;2023-06-14T11:59:12;5.40;;;3.85;;
47749;SDS011;49810;48.160;10.812;2023-06-14T12:01:42;7.00;;;3.80;;
47749;SDS011;49810;48.160;10.812;2023-06-14T12:04:10;5.68;;;3.20;;
47749;SDS011;49810;48.160;10.812;2023-06-14T12:06:38;9.63;;;3.72;;
47749;SDS011;49810;48.160;10.812;2023-06-14T12:09:07;8.45;;;3.60;;
47749;SDS011;49810;48.160;10.812;2023-06-14T12:11:40;5.10;;;3.50;;
47749;SDS011;49810;48.160;10.812;2023-06-14T12:14:08;6.20;;;3.17;;
47749;SDS011;49810;48.160;10.812;2023-06-14T12:16:39;4.97;;;3.15;;
47749;SDS011;49810;48.160;10.812;2023-06-14T12:19:09;9.05;;;3.22;;
47749;SDS011;49810;48.160;10.812;2023-06-14T12:21:38;7.45;;;3.60;;
47749;SDS011;49810;48.160;10.812;2023-06-14T12:24:07;7.43;;;3.40;;
47749;SDS011;49810;48.160;10.812;2023-06-14T12:26:37;6.53;;;3.45;;
47749;SDS011;49810;48.160;10.812;2023-06-14T12:29:06;5.63;;;3.60;;
47749;SDS011;49810;48.160;10.812;2023-06-14T12:31:34;4.07;;;3.03;;
47749;SDS011;49810;48.160;10.812;2023-06-14T12:34:03;6.95;;;3.30;;
47749;SDS011;49810;48.160;10.812;2023-06-14T12:36:31;6.45;;;3.05;;
47749;SDS011;49810;48.160;10.812;2023-06-14T12:39:00;5.55;;;3.03;;
47749;SDS011;49810;48.160;10.812;2023-06-14T12:41:28;10.10;;;3.42;;
47749;SDS011;49810;48.160;10.812;2023-06-14T12:43:56;6.32;;;3.55;;
47749;SDS011;49810;48.160;10.812;2023-06-14T12:46:26;4.82;;;3.10;;
47749;SDS011;49810;48.160;10.812;2023-06-14T12:48:54;8.05;;;3.67;;
47749;SDS011;49810;48.160;10.812;2023-06-14T12:51:23;6.30;;;3.53;;
47749;SDS011;49810;48.160;10.812;2023-06-14T12:53:52;8.05;;;3.53;;
47749;SDS011;49810;48.160;10.812;2023-06-14T12:56:20;5.57;;;3.22;;
47749;SDS011;49810;48.160;10.812;2023-06-14T12:58:50;7.60;;;3.53;;
47749;SDS011;49810;48.160;10.812;2023-06-14T13:01:18;8.32;;;3.65;;
47749;SDS011;49810;48.160;10.812;2023-06-14T13:03:46;6.25;;;3.33;;
47749;SDS011;49810;48.160;10.812;2023-06-14T13:06:14;8.32;;;3.60;;
47749;SDS011;49810;48.160;10.812;2023-06-14T13:08:44;4.35;;;2.95;;
47749;SDS011;49810;48.160;10.812;2023-06-14T13:11:12;9.60;;;3.15;;
47749;SDS011;49810;48.160;10.812;2023-06-14T13:13:40;4.78;;;3.47;;
47749;SDS011;49810;48.160;10.812;2023-06-14T13:16:08;7.38;;;3.00;;
47749;SDS011;49810;48.160;10.812;2023-06-14T13:18:45;7.22;;;3.50;;
47749;SDS011;49810;48.160;10.812;2023-06-14T13:21:13;4.72;;;3.13;;
47749;SDS011;49810;48.160;10.812;2023-06-14T13:23:41;5.85;;;3.60;;
47749;SDS011;49810;48.160;10.812;2023-06-14T13:26:11;5.38;;;3.25;;
47749;SDS011;49810;48.160;10.812;2023-06-14T13:28:39;6.22;;;3.45;;
47749;SDS011;49810;48.160;10.812;2023-06-14T13:31:07;7.20;;;3.30;;
47749;SDS011;49810;48.160;10.812;2023-06-14T13:33:34;7.00;;;3.80;;
47749;SDS011;49810;48.160;10.812;2023-06-14T13:36:02;5.72;;;3.38;;
47749;SDS011;49810;48.160;10.812;2023-06-14T13:38:30;10.93;;;3.10;;
47749;SDS011;49810;48.160;10.812;2023-06-14T13:40:58;7.85;;;3.25;;
47749;SDS011;49810;48.160;10.812;2023-06-14T13:43:28;6.20;;;3.33;;
47749;SDS011;49810;48.160;10.812;2023-06-14T13:45:56;6.10;;;3.50;;
47749;SDS011;49810;48.160;10.812;2023-06-14T13:48:25;8.52;;;3.55;;
47749;SDS011;49810;48.160;10.812;2023-06-14T13:50:53;6.15;;;3.70;;
47749;SDS011;49810;48.160;10.812;2023-06-14T13:53:20;5.50;;;3.63;;
47749;SDS011;49810;48.160;10.812;2023-06-14T13:55:48;6.20;;;3.20;;
47749;SDS011;49810;48.160;10.812;2023-06-14T13:58:16;6.82;;;3.67;;
47749;SDS011;49810;48.160;10.812;2023-06-14T14:00:45;6.90;;;3.47;;
47749;SDS011;49810;48.160;10.812;2023-06-14T14:03:14;8.55;;;3.33;;
47749;SDS011;49810;48.160;10.812;2023-06-14T14:05:41;6.40;;;3.28;;
47749;SDS011;49810;48.160;10.812;2023-06-14T14:08:09;5.55;;;3.30;;
47749;SDS011;49810;48.160;10.812;2023-06-14T14:10:37;8.57;;;6.00;;
47749;SDS011;49810;48.160;10.812;2023-06-14T14:13:05;6.55;;;3.22;;
47749;SDS011;49810;48.160;10.812;2023-06-14T14:15:33;6.32;;;3.40;;
47749;SDS011;49810;48.160;10.812;2023-06-14T14:18:03;6.22;;;3.03;;
47749;SDS011;49810;48.160;10.812;2023-06-14T14:20:31;11.23;;;3.10;;
47749;SDS011;49810;48.160;10.812;2023-06-14T14:22:59;6.03;;;3.15;;
47749;SDS011;49810;48.160;10.812;2023-06-14T14:25:28;6.95;;;3.60;;
47749;SDS011;49810;48.160;10.812;2023-06-14T14:27:56;5.75;;;3.03;;
47749;SDS011;49810;48.160;10.812;2023-06-14T14:30:24;5.40;;;3.28;;
47749;SDS011;49810;48.160;10.812;2023-06-14T14:32:53;7.68;;;3.50;;
47749;SDS011;49810;48.160;10.812;2023-06-14T14:35:23;8.68;;;3.50;;
47749;SDS011;49810;48.160;10.812;2023-06-14T14:37:52;3.90;;;3.15;;
47749;SDS011;49810;48.160;10.812;2023-06-14T14:40:20;5.35;;;2.85;;
47749;SDS011;49810;48.160;10.812;2023-06-14T14:42:48;6.03;;;3.22;;
47749;SDS011;49810;48.160;10.812;2023-06-14T14:45:16;7.07;;;3.38;;
47749;SDS011;49810;48.160;10.812;2023-06-14T14:47:44;6.20;;;3.22;;
47749;SDS011;49810;48.160;10.812;2023-06-14T14:50:12;5.13;;;3.17;;
47749;SDS011;49810;48.160;10.812;2023-06-14T14:52:42;8.48;;;4.93;;